Time;durP1;ratioP1;P1;durP2;ratioP2;P2;SDS_P1;SDS_P2;PMS_P1;PMS_P2;Temp;Humidity;BMP_temperature;BMP_pressure;BME280_temperature;BME280_humidity;BME280_pressure;Samples;Min_cycle;Max_cycle;Signal;HPM_P1;HPM_P2
2022/01/31 00:01:49;;;;;;;1.00;1.00;;;-0.40;99.90;;;;;;5032094;28;20282;-77
2022/01/31 00:04:14;;;;;;;1.00;1.00;;;-0.40;99.90;;;;;;5031971;28;20287;-74
2022/01/31 00:06:42;;;;;;;0.90;0.90;;;-0.40;99.90;;;;;;5031484;28;20212;-74
2022/01/31 00:09:14;;;;;;;1.00;1.00;;;-0.50;99.90;;;;;;5031939;28;20172;-74
2022/01/31 00:11:42;;;;;;;0.97;0.97;;;-0.60;99.90;;;;;;5031863;28;20260;-75
2022/01/31 00:14:16;;;;;;;1.07;1.07;;;-0.60;99.90;;;;;;5031937;28;20678;-76
2022/01/31 00:16:41;;;;;;;0.90;0.90;;;-0.40;99.90;;;;;;5031694;28;20214;-74
2022/01/31 00:19:07;;;;;;;0.93;0.93;;;-0.30;99.90;;;;;;5032403;28;20172;-76
2022/01/31 00:21:33;;;;;;;1.00;1.00;;;-0.50;99.90;;;;;;5031823;28;20183;-74
2022/01/31 00:23:59;;;;;;;1.00;1.00;;;-0.50;99.90;;;;;;5031633;28;20553;-74
2022/01/31 00:26:24;;;;;;;0.90;0.90;;;-0.40;99.90;;;;;;5031689;28;20216;-73
2022/01/31 00:28:50;;;;;;;0.90;0.90;;;-0.30;99.90;;;;;;5031710;28;20703;-76
2022/01/31 00:31:16;;;;;;;0.90;0.90;;;-0.20;99.90;;;;;;5031979;28;20180;-76
2022/01/31 00:33:41;;;;;;;0.90;0.90;;;-0.10;99.90;;;;;;5031731;28;20262;-76
2022/01/31 00:36:07;;;;;;;0.97;0.97;;;-0.10;99.90;;;;;;5031479;28;20286;-73
2022/01/31 00:38:32;;;;;;;0.90;0.90;;;-0.10;99.90;;;;;;5031895;28;20633;-74
2022/01/31 00:40:58;;;;;;;1.00;1.00;;;-0.10;99.90;;;;;;5031732;28;20603;-73
2022/01/31 00:43:24;;;;;;;0.90;0.90;;;-0.10;99.90;;;;;;5031569;28;20175;-73
2022/01/31 00:46:00;;;;;;;1.07;1.07;;;0.00;99.90;;;;;;5030578;28;20265;-74
2022/01/31 00:48:27;;;;;;;0.90;0.90;;;0.10;99.90;;;;;;5031456;28;20183;-73
2022/01/31 00:50:53;;;;;;;1.00;1.00;;;0.20;99.90;;;;;;5031279;28;20617;-76
2022/01/31 00:53:18;;;;;;;0.93;0.93;;;0.20;99.90;;;;;;5031178;28;20259;-74
2022/01/31 00:55:44;;;;;;;0.90;0.90;;;0.30;99.90;;;;;;5030857;28;20245;-74
2022/01/31 00:58:09;;;;;;;1.00;1.00;;;0.30;99.90;;;;;;5031018;28;20179;-76
2022/01/31 01:00:35;;;;;;;1.07;1.07;;;0.30;99.90;;;;;;5030933;28;20183;-76
2022/01/31 01:03:01;;;;;;;0.90;0.90;;;0.30;99.90;;;;;;5031230;28;20176;-74
2022/01/31 01:05:27;;;;;;;1.00;1.00;;;0.30;99.90;;;;;;5030567;28;20195;-77
2022/01/31 01:07:52;;;;;;;0.90;0.90;;;0.30;99.90;;;;;;5031048;28;20180;-74
2022/01/31 01:10:20;;;;;;;1.00;1.00;;;0.40;99.90;;;;;;5031285;28;20489;-74
2022/01/31 01:12:47;;;;;;;1.00;1.00;;;0.60;99.90;;;;;;5030987;28;20726;-77
2022/01/31 01:15:14;;;;;;;1.00;1.00;;;0.60;99.90;;;;;;5030291;28;20263;-74
2022/01/31 01:17:39;;;;;;;1.00;1.00;;;0.60;99.90;;;;;;5031099;28;20183;-74
2022/01/31 01:20:06;;;;;;;0.87;0.87;;;0.60;99.90;;;;;;5031054;28;20172;-74
2022/01/31 01:22:32;;;;;;;1.10;1.10;;;0.70;99.90;;;;;;5030802;28;20183;-74
2022/01/31 01:25:01;;;;;;;1.00;1.00;;;0.70;99.90;;;;;;5030894;28;20175;-74
2022/01/31 01:27:27;;;;;;;0.90;0.90;;;0.70;99.90;;;;;;5030858;28;20208;-74
2022/01/31 01:29:52;;;;;;;1.00;1.00;;;0.70;99.90;;;;;;5034594;28;20233;-74
2022/01/31 01:32:18;;;;;;;0.93;0.93;;;0.70;99.90;;;;;;5035058;28;20176;-75
2022/01/31 01:34:44;;;;;;;0.90;0.90;;;0.80;99.90;;;;;;5034828;28;20184;-77
2022/01/31 01:37:10;;;;;;;0.90;0.90;;;0.90;99.90;;;;;;5034258;28;20662;-77
2022/01/31 01:39:35;;;;;;;0.90;0.90;;;1.00;99.90;;;;;;5035000;28;20222;-74
2022/01/31 01:42:01;;;;;;;0.90;0.90;;;0.90;99.90;;;;;;5034921;28;20175;-75
2022/01/31 01:44:40;;;;;;;0.90;0.90;;;1.00;99.90;;;;;;5041184;28;20190;-74
2022/01/31 01:47:06;;;;;;;1.07;1.07;;;1.00;99.90;;;;;;5040316;28;20215;-74
2022/01/31 01:49:32;;;;;;;1.00;1.00;;;1.00;99.90;;;;;;5040867;28;20180;-74
2022/01/31 01:51:57;;;;;;;1.10;1.10;;;1.00;99.90;;;;;;5036315;28;20593;-75
2022/01/31 01:54:23;;;;;;;1.00;1.00;;;1.00;99.90;;;;;;5034603;28;20172;-76
2022/01/31 01:56:48;;;;;;;0.90;0.90;;;1.10;99.90;;;;;;5034088;28;20200;-74
2022/01/31 01:59:14;;;;;;;0.90;0.90;;;1.10;99.90;;;;;;5034560;28;20176;-75
2022/01/31 02:01:39;;;;;;;0.90;0.90;;;1.10;99.90;;;;;;5034218;28;20187;-74
2022/01/31 02:04:05;;;;;;;1.00;1.00;;;1.00;99.90;;;;;;5034337;28;20541;-77
2022/01/31 02:06:30;;;;;;;1.00;1.00;;;0.50;99.90;;;;;;5033527;28;20278;-74
2022/01/31 02:08:56;;;;;;;0.90;0.90;;;0.60;99.90;;;;;;5034443;28;20187;-74
2022/01/31 02:11:22;;;;;;;0.87;0.87;;;0.70;99.90;;;;;;5034263;28;20184;-74
2022/01/31 02:13:47;;;;;;;1.00;1.00;;;0.80;99.90;;;;;;5034276;28;20183;-77
2022/01/31 02:16:13;;;;;;;0.90;0.90;;;0.90;99.90;;;;;;5033466;28;20212;-76
2022/01/31 02:18:47;;;;;;;0.97;0.97;;;0.90;99.90;;;;;;5033984;28;20182;-76
2022/01/31 02:21:13;;;;;;;0.90;0.90;;;1.00;99.90;;;;;;5034217;28;20240;-76
2022/01/31 02:23:39;;;;;;;0.90;0.90;;;1.10;99.90;;;;;;5033886;28;20630;-74
2022/01/31 02:26:05;;;;;;;0.87;0.87;;;0.70;99.90;;;;;;5033481;28;20207;-76
2022/01/31 02:28:34;;;;;;;1.10;1.10;;;0.80;99.90;;;;;;5033973;28;20175;-77
2022/01/31 02:31:01;;;;;;;0.90;0.90;;;0.90;99.90;;;;;;5033916;28;20172;-76
2022/01/31 02:33:28;;;;;;;0.90;0.90;;;1.00;99.90;;;;;;5033816;28;20182;-76
2022/01/31 02:35:55;;;;;;;0.90;0.90;;;1.10;99.90;;;;;;5033585;28;20204;-76
2022/01/31 02:38:21;;;;;;;0.90;0.90;;;1.10;99.90;;;;;;5034917;28;20211;-74
2022/01/31 02:40:48;;;;;;;0.90;0.90;;;1.00;99.90;;;;;;5034161;28;20195;-76
2022/01/31 02:43:26;;;;;;;0.90;0.90;;;1.00;99.90;;;;;;5034596;28;20179;-76
2022/01/31 02:45:52;;;;;;;0.90;0.90;;;1.10;99.90;;;;;;5034516;28;20223;-77
2022/01/31 02:48:21;;;;;;;0.97;0.97;;;1.20;99.90;;;;;;5033967;28;20254;-76
2022/01/31 02:50:46;;;;;;;0.90;0.90;;;1.20;99.90;;;;;;5033698;28;20642;-77
2022/01/31 02:53:14;;;;;;;0.80;0.80;;;1.30;99.90;;;;;;5033959;28;20183;-77
2022/01/31 02:55:44;;;;;;;0.90;0.90;;;1.30;99.90;;;;;;5032903;28;20207;-76
2022/01/31 02:58:11;;;;;;;1.00;1.00;;;1.40;99.90;;;;;;5033362;28;20267;-76
2022/01/31 03:00:37;;;;;;;0.90;0.90;;;1.40;99.90;;;;;;5033486;28;20209;-75
2022/01/31 03:03:04;;;;;;;0.90;0.90;;;1.40;99.90;;;;;;5033617;28;20273;-75
2022/01/31 03:05:30;;;;;;;1.00;1.00;;;1.10;99.90;;;;;;5033128;28;20223;-75
2022/01/31 03:07:56;;;;;;;1.00;1.00;;;1.00;99.90;;;;;;5033247;28;20182;-74
2022/01/31 03:10:22;;;;;;;0.90;0.90;;;1.00;99.90;;;;;;5033356;28;20172;-75
2022/01/31 03:12:48;;;;;;;1.00;1.00;;;0.90;99.90;;;;;;5032710;28;20172;-75
2022/01/31 03:15:14;;;;;;;0.90;0.90;;;0.90;99.90;;;;;;5032621;28;20192;-75
2022/01/31 03:17:42;;;;;;;1.00;1.00;;;0.90;99.90;;;;;;5032899;28;20229;-74
2022/01/31 03:20:08;;;;;;;0.93;0.93;;;1.00;99.90;;;;;;5032953;28;20646;-74
2022/01/31 03:22:34;;;;;;;1.00;1.00;;;1.00;99.90;;;;;;5032929;28;20184;-74
2022/01/31 03:24:59;;;;;;;1.00;1.00;;;1.10;99.90;;;;;;5032624;28;20271;-75
2022/01/31 03:27:25;;;;;;;0.90;0.90;;;1.20;99.90;;;;;;5032299;28;20358;-74
2022/01/31 03:29:50;;;;;;;0.90;0.90;;;1.30;99.90;;;;;;5032722;28;20750;-74
2022/01/31 03:32:16;;;;;;;1.00;1.00;;;1.30;99.90;;;;;;5032732;28;20267;-75
2022/01/31 03:34:41;;;;;;;0.90;0.90;;;1.30;99.90;;;;;;5032750;28;20251;-74
2022/01/31 03:37:07;;;;;;;0.93;0.93;;;1.30;99.90;;;;;;5032174;28;20891;-75
2022/01/31 03:39:32;;;;;;;0.90;0.90;;;1.30;99.90;;;;;;5032594;28;20642;-75
2022/01/31 03:41:58;;;;;;;0.90;0.90;;;1.20;99.90;;;;;;5032399;28;20179;-75
2022/01/31 03:44:24;;;;;;;0.90;0.90;;;1.20;99.90;;;;;;5032627;28;20179;-75
2022/01/31 03:46:49;;;;;;;1.00;1.00;;;1.30;99.90;;;;;;5031880;28;20218;-75
2022/01/31 03:49:15;;;;;;;1.00;1.00;;;1.30;99.90;;;;;;5032329;28;20176;-75
2022/01/31 03:51:40;;;;;;;0.90;0.90;;;1.20;99.90;;;;;;5032506;28;20204;-75
2022/01/31 03:54:06;;;;;;;0.90;0.90;;;1.20;99.90;;;;;;5032412;28;20206;-77
2022/01/31 03:56:32;;;;;;;0.90;0.90;;;1.30;99.90;;;;;;5031610;28;20685;-75
2022/01/31 03:58:58;;;;;;;0.90;0.90;;;1.50;99.90;;;;;;5032333;28;20490;-75
2022/01/31 04:01:25;;;;;;;0.90;0.90;;;1.60;90.50;;;;;;5032007;28;20195;-75
2022/01/31 04:03:51;;;;;;;0.90;0.90;;;1.70;70.80;;;;;;5032223;28;20203;-75
2022/01/31 04:06:16;;;;;;;0.90;0.90;;;1.70;32.70;;;;;;5031524;28;20246;-75
2022/01/31 04:08:42;;;;;;;1.00;1.00;;;1.70;31.80;;;;;;5032078;28;20550;-74
2022/01/31 04:11:07;;;;;;;1.00;1.00;;;1.70;35.70;;;;;;5031927;28;20175;-75
2022/01/31 04:13:33;;;;;;;1.00;1.00;;;1.80;31.00;;;;;;5032228;28;20468;-75
2022/01/31 04:15:58;;;;;;;1.00;1.00;;;1.70;35.40;;;;;;5031323;28;20250;-75
2022/01/31 04:18:25;;;;;;;1.00;1.00;;;1.80;43.10;;;;;;5032064;28;20674;-75
2022/01/31 04:20:51;;;;;;;0.83;0.83;;;1.80;24.10;;;;;;5031872;28;20250;-75
2022/01/31 04:23:19;;;;;;;0.90;0.90;;;1.80;23.60;;;;;;5031917;28;20179;-75
2022/01/31 04:28:31;;;;;;;1.00;1.00;;;1.80;18.80;;;;;;5032119;28;20172;-75
2022/01/31 04:31:12;;;;;;;0.90;0.90;;;1.90;41.40;;;;;;5031615;28;20190;-75
2022/01/31 04:33:39;;;;;;;0.97;0.97;;;1.90;25.30;;;;;;5031681;28;20176;-75
2022/01/31 04:36:05;;;;;;;0.90;0.90;;;1.90;26.20;;;;;;5030862;28;20203;-75
2022/01/31 04:38:31;;;;;;;0.80;0.80;;;1.90;37.70;;;;;;5031877;28;20266;-75
2022/01/31 04:40:56;;;;;;;0.90;0.90;;;1.90;44.50;;;;;;5031403;28;20816;-75
2022/01/31 04:43:22;;;;;;;0.90;0.90;;;1.90;47.50;;;;;;5031672;28;20571;-75
2022/01/31 04:45:49;;;;;;;1.00;1.00;;;1.90;35.00;;;;;;5030883;28;20207;-75
2022/01/31 04:48:15;;;;;;;0.90;0.90;;;1.90;28.10;;;;;;5031448;28;20186;-75
2022/01/31 04:50:43;;;;;;;0.93;0.93;;;1.90;41.00;;;;;;5031253;28;20258;-75
2022/01/31 04:53:09;;;;;;;0.90;0.90;;;1.90;54.90;;;;;;5031474;28;20526;-75
2022/01/31 04:55:35;;;;;;;0.90;0.90;;;1.90;38.90;;;;;;5030823;28;20208;-75
2022/01/31 04:58:01;;;;;;;0.90;0.90;;;2.00;29.80;;;;;;5031244;28;20534;-75
2022/01/31 05:00:26;;;;;;;0.87;0.87;;;1.90;49.50;;;;;;5031305;28;20183;-75
2022/01/31 05:02:52;;;;;;;0.90;0.90;;;2.00;55.80;;;;;;5031306;28;20168;-76
2022/01/31 05:05:17;;;;;;;0.90;0.90;;;2.10;22.60;;;;;;5030814;28;20177;-75
2022/01/31 05:07:43;;;;;;;1.00;1.00;;;2.20;1.00;;;;;;5032002;28;20267;-74
2022/01/31 05:10:09;;;;;;;0.87;0.87;;;2.20;1.00;;;;;;5031656;28;20183;-76
2022/01/31 05:12:34;;;;;;;0.90;0.90;;;2.20;1.00;;;;;;5031779;28;20182;-74
2022/01/31 05:15:00;;;;;;;0.83;0.83;;;2.30;1.00;;;;;;5031201;28;20195;-76
2022/01/31 05:17:26;;;;;;;0.90;0.90;;;2.20;1.00;;;;;;5031179;28;20704;-75
2022/01/31 05:19:51;;;;;;;0.90;0.90;;;2.20;1.00;;;;;;5031408;28;20266;-75
2022/01/31 05:22:17;;;;;;;0.80;0.80;;;2.20;1.00;;;;;;5031672;28;20183;-74
2022/01/31 05:24:42;;;;;;;0.80;0.80;;;2.20;1.00;;;;;;5031617;28;20310;-75
2022/01/31 05:27:08;;;;;;;0.90;0.90;;;2.20;26.70;;;;;;5030992;28;20310;-74
2022/01/31 05:29:33;;;;;;;0.90;0.90;;;2.20;3.30;;;;;;5031480;28;20564;-75
2022/01/31 05:31:59;;;;;;;0.90;0.90;;;2.30;1.00;;;;;;5031381;28;20175;-75
2022/01/31 05:34:24;;;;;;;0.90;0.90;;;2.30;1.00;;;;;;5031162;28;20164;-74
2022/01/31 05:36:56;;;;;;;0.97;0.97;;;2.40;1.00;;;;;;5030963;28;20206;-75
2022/01/31 05:39:24;;;;;;;0.80;0.80;;;2.50;1.00;;;;;;5031233;28;20579;-75
2022/01/31 05:41:54;;;;;;;0.80;0.80;;;2.60;1.00;;;;;;5031221;28;20176;-76
2022/01/31 05:44:21;;;;;;;0.90;0.90;;;2.70;1.00;;;;;;5031381;28;20171;-76
2022/01/31 05:46:47;;;;;;;0.90;0.90;;;2.70;1.00;;;;;;5030556;28;20693;-75
2022/01/31 05:49:12;;;;;;;0.90;0.90;;;2.80;1.00;;;;;;5031047;28;20275;-76
2022/01/31 05:52:05;;;;;;;1.10;1.10;;;2.90;1.00;;;;;;5031245;28;20207;-75
2022/01/31 05:54:37;;;;;;;0.90;0.90;;;2.80;1.00;;;;;;5030899;28;20172;-75
2022/01/31 05:57:03;;;;;;;0.90;0.90;;;2.80;1.00;;;;;;5030235;28;20208;-76
2022/01/31 05:59:29;;;;;;;1.00;1.00;;;2.80;1.00;;;;;;5030957;28;20646;-75
2022/01/31 06:01:57;;;;;;;1.00;1.00;;;2.80;1.00;;;;;;5030837;28;20200;-75
2022/01/31 06:04:23;;;;;;;0.90;0.90;;;2.80;1.00;;;;;;5030965;28;20700;-75
2022/01/31 06:06:49;;;;;;;0.80;0.80;;;2.90;1.00;;;;;;5030715;28;20231;-75
2022/01/31 06:09:14;;;;;;;0.80;0.80;;;2.90;1.00;;;;;;5031099;28;20229;-75
2022/01/31 06:11:41;;;;;;;0.90;0.90;;;2.90;1.00;;;;;;5031002;28;20168;-75
2022/01/31 06:14:09;;;;;;;0.80;0.80;;;2.90;1.00;;;;;;5030773;28;20630;-75
2022/01/31 06:16:35;;;;;;;0.83;0.83;;;3.00;1.00;;;;;;5033285;28;20207;-76
2022/01/31 06:19:01;;;;;;;0.87;0.87;;;3.00;1.00;;;;;;5034455;28;20187;-77
2022/01/31 06:21:27;;;;;;;1.00;1.00;;;3.10;1.00;;;;;;5034507;28;20168;-76
2022/01/31 06:23:53;;;;;;;0.90;0.90;;;3.20;1.00;;;;;;5034664;28;20168;-76
2022/01/31 06:26:20;;;;;;;0.90;0.90;;;3.20;1.00;;;;;;5034082;28;20235;-76
2022/01/31 06:28:47;;;;;;;1.00;1.00;;;3.30;1.00;;;;;;5096690;23;20236;-80
2022/01/31 06:31:13;;;;;;;0.93;0.93;;;3.30;1.00;;;;;;5105190;28;20188;-81
2022/01/31 06:33:39;;;;;;;1.00;1.00;;;3.30;1.00;;;;;;5105114;28;20683;-82
2022/01/31 06:36:04;;;;;;;0.90;0.90;;;3.30;1.00;;;;;;5096171;28;20300;-81
2022/01/31 06:38:30;;;;;;;0.93;0.93;;;3.30;1.00;;;;;;5085413;28;20185;-81
2022/01/31 06:40:55;;;;;;;0.90;0.90;;;3.30;1.00;;;;;;5084793;28;20170;-82
2022/01/31 06:43:21;;;;;;;1.00;1.00;;;3.30;1.00;;;;;;5077888;28;20488;-78
2022/01/31 06:45:47;;;;;;;0.70;0.70;;;3.30;1.00;;;;;;5069689;28;20877;-76
2022/01/31 06:48:12;;;;;;;0.90;0.90;;;3.30;1.00;;;;;;5073837;28;20186;-77
2022/01/31 06:50:38;;;;;;;0.90;0.90;;;3.30;1.00;;;;;;5074303;28;20198;-78
2022/01/31 06:53:05;;;;;;;0.90;0.90;;;3.30;1.00;;;;;;5081888;28;20202;-79
2022/01/31 06:55:33;;;;;;;0.90;0.90;;;3.20;6.00;;;;;;5081441;28;20221;-78
2022/01/31 06:58:00;;;;;;;0.80;0.80;;;3.10;55.90;;;;;;5082809;28;20224;-79
2022/01/31 07:00:25;;;;;;;0.90;0.90;;;3.10;99.90;;;;;;5081718;28;20182;-80
2022/01/31 07:02:51;;;;;;;0.90;0.90;;;3.10;99.90;;;;;;5083277;28;20205;-79
2022/01/31 07:05:18;;;;;;;0.97;0.97;;;3.00;99.90;;;;;;5082788;28;20209;-80
2022/01/31 07:07:44;;;;;;;1.00;1.00;;;3.10;99.90;;;;;;5083441;28;20220;-79
2022/01/31 07:10:11;;;;;;;0.90;0.90;;;3.00;99.90;;;;;;5084295;28;20174;-79
2022/01/31 07:12:39;;;;;;;1.00;1.00;;;3.00;99.90;;;;;;5082596;28;20673;-78
2022/01/31 07:15:10;;;;;;;1.00;1.00;;;3.00;99.90;;;;;;5082774;28;20202;-79
2022/01/31 07:17:37;;;;;;;0.90;0.90;;;3.00;99.90;;;;;;5082168;28;20186;-81
2022/01/31 07:20:05;;;;;;;0.80;0.80;;;3.00;99.90;;;;;;5083213;28;20236;-80
2022/01/31 07:22:36;;;;;;;0.83;0.83;;;3.00;99.90;;;;;;5089504;28;20213;-79
2022/01/31 07:25:09;;;;;;;0.80;0.80;;;3.00;99.90;;;;;;5091248;28;20174;-81
2022/01/31 07:27:36;;;;;;;0.90;0.90;;;3.00;99.90;;;;;;5092577;28;20206;-80
2022/01/31 07:30:03;;;;;;;1.00;1.00;;;3.00;99.90;;;;;;5097706;28;20179;-84
2022/01/31 07:32:29;;;;;;;0.90;0.90;;;3.00;99.90;;;;;;5087019;28;20182;-79
2022/01/31 07:34:56;;;;;;;0.90;0.90;;;3.00;99.90;;;;;;5084459;28;20209;-80
2022/01/31 07:37:23;;;;;;;1.00;1.00;;;3.00;99.90;;;;;;5086730;28;20222;-84
2022/01/31 07:39:49;;;;;;;0.90;0.90;;;3.00;99.90;;;;;;5085631;28;20217;-79
2022/01/31 07:42:15;;;;;;;0.80;0.80;;;2.90;99.90;;;;;;5085058;28;20170;-80
2022/01/31 07:44:41;;;;;;;0.90;0.90;;;2.90;99.90;;;;;;5085933;28;20166;-80
2022/01/31 07:47:06;;;;;;;0.90;0.90;;;3.00;99.90;;;;;;5092411;28;20242;-80
2022/01/31 07:49:32;;;;;;;0.83;0.83;;;3.00;99.90;;;;;;5095133;28;20170;-84
2022/01/31 07:51:59;;;;;;;0.90;0.90;;;2.90;99.90;;;;;;5091907;28;20194;-79
2022/01/31 07:54:25;;;;;;;0.90;0.90;;;2.90;99.90;;;;;;5085845;28;20182;-80
2022/01/31 07:56:51;;;;;;;0.97;0.97;;;3.00;99.90;;;;;;5081951;28;20194;-80
2022/01/31 07:59:16;;;;;;;0.90;0.90;;;3.00;99.90;;;;;;5080313;28;20197;-81
2022/01/31 08:01:42;;;;;;;0.90;0.90;;;3.00;99.90;;;;;;5081523;28;20170;-80
2022/01/31 08:04:07;;;;;;;1.00;1.00;;;3.00;99.90;;;;;;5081320;28;20661;-79
2022/01/31 08:06:33;;;;;;;0.90;0.90;;;3.00;99.90;;;;;;5081275;28;20208;-79
2022/01/31 08:08:59;;;;;;;1.00;1.00;;;3.00;99.90;;;;;;5085727;28;20201;-79
2022/01/31 08:11:30;;;;;;;0.90;0.90;;;2.90;99.90;;;;;;5079723;28;20166;-79
2022/01/31 08:14:00;;;;;;;1.00;1.00;;;2.90;99.90;;;;;;5086693;28;20194;-80
2022/01/31 08:16:26;;;;;;;1.00;1.00;;;3.00;99.90;;;;;;5082375;28;20644;-79
2022/01/31 08:18:52;;;;;;;0.90;0.90;;;2.90;99.90;;;;;;5080798;28;20171;-80
2022/01/31 08:21:20;;;;;;;0.90;0.90;;;2.90;99.90;;;;;;5080743;28;20182;-79
2022/01/31 08:23:46;;;;;;;0.90;0.90;;;2.90;99.90;;;;;;5083499;28;20175;-79
2022/01/31 08:26:16;;;;;;;0.90;0.90;;;2.90;99.90;;;;;;5079677;28;20680;-80
2022/01/31 08:28:52;;;;;;;0.83;0.83;;;2.90;99.90;;;;;;5082163;28;20190;-78
2022/01/31 08:31:29;;;;;;;1.00;1.00;;;2.90;99.90;;;;;;5077180;28;20303;-81
2022/01/31 08:36:22;;;;;;;0.97;0.97;;;3.00;99.90;;;;;;5072701;28;20719;-78
2022/01/31 08:38:50;;;;;;;0.90;0.90;;;3.00;99.90;;;;;;5072663;28;20174;-79
2022/01/31 08:41:16;;;;;;;0.90;0.90;;;3.00;99.90;;;;;;5073334;28;20183;-78
2022/01/31 08:43:43;;;;;;;1.00;1.00;;;3.10;99.90;;;;;;5073308;28;20182;-77
2022/01/31 08:46:10;;;;;;;0.90;0.90;;;3.20;99.90;;;;;;5072435;28;20706;-79
2022/01/31 08:48:36;;;;;;;0.93;0.93;;;3.20;99.90;;;;;;5073322;28;20186;-79
2022/01/31 08:51:05;;;;;;;0.93;0.93;;;3.30;99.90;;;;;;5073649;28;20181;-79
2022/01/31 08:53:32;;;;;;;0.90;0.90;;;3.40;99.90;;;;;;5073350;28;20182;-78
2022/01/31 08:56:10;;;;;;;0.90;0.90;;;3.40;99.90;;;;;;5072833;28;20285;-78
2022/01/31 08:58:42;;;;;;;0.90;0.90;;;3.50;99.90;;;;;;5073434;28;20269;-79
2022/01/31 09:01:09;;;;;;;0.90;0.90;;;3.70;99.90;;;;;;5073171;28;20206;-79
2022/01/31 09:06:01;;;;;;;0.90;0.90;;;3.80;99.90;;;;;;5073086;28;20241;-80
2022/01/31 09:08:28;;;;;;;0.87;0.87;;;3.80;99.90;;;;;;5075660;28;20198;-81
2022/01/31 09:10:53;;;;;;;0.90;0.90;;;3.80;99.90;;;;;;5073646;28;20634;-78
2022/01/31 09:13:19;;;;;;;0.80;0.80;;;4.50;99.90;;;;;;5074119;28;20171;-80
2022/01/31 09:15:45;;;;;;;0.80;0.80;;;5.40;1.00;;;;;;5074354;28;20213;-79
2022/01/31 09:18:10;;;;;;;0.70;0.70;;;5.00;1.00;;;;;;5074093;28;20190;-80
2022/01/31 09:20:36;;;;;;;0.80;0.80;;;4.60;1.00;;;;;;5075183;28;20178;-79
2022/01/31 09:23:03;;;;;;;0.80;0.80;;;4.50;20.30;;;;;;5075179;28;20178;-78
2022/01/31 09:25:30;;;;;;;0.70;0.70;;;4.50;1.50;;;;;;5073877;28;20212;-80
2022/01/31 09:27:56;;;;;;;0.70;0.70;;;5.70;1.00;;;;;;5072845;28;20210;-80
2022/01/31 09:30:22;;;;;;;0.70;0.70;;;7.80;1.00;;;;;;5078082;28;20175;-79
2022/01/31 09:32:48;;;;;;;0.63;0.63;;;8.60;1.00;;;;;;5080836;28;20185;-78
2022/01/31 09:35:14;;;;;;;0.60;0.60;;;9.40;99.90;;;;;;5076087;28;20178;-76
2022/01/31 09:37:40;;;;;;;0.40;0.40;;;9.70;99.90;;;;;;5074744;28;20691;-79
2022/01/31 09:40:06;;;;;;;0.40;0.40;;;10.20;1.00;;;;;;5072058;28;20178;-76
2022/01/31 09:42:59;;;;;;;0.40;0.40;;;10.40;99.90;;;;;;5071738;28;20198;-78
2022/01/31 09:45:38;;;;;;;0.40;0.40;;;10.60;1.00;;;;;;5071921;28;20203;-78
2022/01/31 09:50:30;;;;;;;0.40;0.40;;;9.00;95.50;;;;;;5077160;28;20181;-79
2022/01/31 09:52:56;;;;;;;0.50;0.50;;;8.40;99.90;;;;;;5080608;28;20189;-79
2022/01/31 09:55:25;;;;;;;0.50;0.50;;;7.40;1.00;;;;;;5087360;28;20224;-80
2022/01/31 09:57:51;;;;;;;0.50;0.50;;;6.90;1.00;;;;;;5080827;28;20714;-78
2022/01/31 10:00:17;;;;;;;0.70;0.70;;;6.60;1.00;;;;;;5077364;28;20174;-78
2022/01/31 10:03:04;;;;;;;0.70;0.70;;;6.40;99.90;;;;;;5077256;28;20186;-79
2022/01/31 10:05:30;;;;;;;0.80;0.80;;;6.10;99.90;;;;;;5078637;28;20263;-80
2022/01/31 10:08:16;;;;;;;0.70;0.70;;;6.00;1.00;;;;;;5077923;28;20183;-77
2022/01/31 10:10:48;;;;;;;0.70;0.70;;;5.90;99.90;;;;;;5079053;28;20661;-77
2022/01/31 10:16:26;;;;;;;0.80;0.80;;;5.60;99.90;;;;;;5076925;28;20208;-78
2022/01/31 10:19:07;;;;;;;0.80;0.80;;;5.60;1.00;;;;;;5077544;28;20183;-77
2022/01/31 10:22:03;;;;;;;0.80;0.80;;;5.40;99.90;;;;;;5077743;28;20226;-79
2022/01/31 10:24:33;;;;;;;0.70;0.70;;;5.30;99.90;;;;;;5078082;28;20178;-78
2022/01/31 10:27:07;;;;;;;0.70;0.70;;;5.40;1.00;;;;;;5076534;28;20210;-78
2022/01/31 10:29:33;;;;;;;0.70;0.70;;;5.30;1.00;;;;;;5078235;28;20226;-78
2022/01/31 10:32:08;;;;;;;0.70;0.70;;;5.20;99.90;;;;;;5077881;28;20257;-78
2022/01/31 10:34:44;;;;;;;0.90;0.90;;;5.30;1.00;;;;;;5079558;28;20166;-78
2022/01/31 10:37:13;;;;;;;0.80;0.80;;;5.30;99.90;;;;;;5078245;28;20194;-79
2022/01/31 10:53:26;;;;;;;0.73;0.73;;;5.90;99.90;;;;;;5076170;28;20713;-80
2022/01/31 10:55:55;;;;;;;0.80;0.80;;;5.90;1.00;;;;;;5075537;28;20288;-80
2022/01/31 10:58:21;;;;;;;0.80;0.80;;;6.00;99.90;;;;;;5075656;28;20186;-79
2022/01/31 11:00:47;;;;;;;0.80;0.80;;;6.30;99.90;;;;;;5076391;28;20472;-80
2022/01/31 11:03:31;;;;;;;0.80;0.80;;;6.30;99.90;;;;;;5077108;28;20175;-81
2022/01/31 11:05:57;;;;;;;0.77;0.77;;;6.40;59.00;;;;;;5076504;28;20222;-81
2022/01/31 11:08:23;;;;;;;0.70;0.70;;;6.50;1.00;;;;;;5076446;28;20265;-80
2022/01/31 11:10:49;;;;;;;0.80;0.80;;;6.50;1.00;;;;;;5075429;28;20194;-78
2022/01/31 11:13:16;;;;;;;0.70;0.70;;;6.60;99.90;;;;;;5075350;28;20186;-80
2022/01/31 11:15:43;;;;;;;0.70;0.70;;;6.40;1.00;;;;;;5074567;28;20280;-80
2022/01/31 11:18:10;;;;;;;0.70;0.70;;;6.20;16.30;;;;;;5075432;28;20651;-79
2022/01/31 11:20:40;;;;;;;0.70;0.70;;;5.90;1.00;;;;;;5077589;28;20178;-79
2022/01/31 11:23:07;;;;;;;0.80;0.80;;;5.90;1.00;;;;;;5076045;28;20287;-79
2022/01/31 11:25:34;;;;;;;0.80;0.80;;;5.80;99.90;;;;;;5077103;28;20222;-80
2022/01/31 11:28:04;;;;;;;0.70;0.70;;;5.90;1.00;;;;;;5073744;28;20197;-80
2022/01/31 11:30:30;;;;;;;0.80;0.80;;;6.10;99.90;;;;;;5077883;28;20177;-78
2022/01/31 11:32:56;;;;;;;0.80;0.80;;;6.10;1.00;;;;;;5078111;28;20181;-78
2022/01/31 11:35:23;;;;;;;0.80;0.80;;;6.20;56.90;;;;;;5075962;28;20257;-78
2022/01/31 11:37:49;;;;;;;0.80;0.80;;;6.00;1.00;;;;;;5074825;28;20174;-79
2022/01/31 11:40:17;;;;;;;0.70;0.70;;;5.80;1.00;;;;;;5074745;28;20182;-78
2022/01/31 11:42:45;;;;;;;0.80;0.80;;;5.70;1.00;;;;;;5075488;28;20265;-78
2022/01/31 11:45:28;;;;;;;0.80;0.80;;;5.60;1.00;;;;;;5076982;28;20209;-79
2022/01/31 11:47:55;;;;;;;0.80;0.80;;;5.50;1.00;;;;;;5081259;28;20274;-78
2022/01/31 11:50:23;;;;;;;0.80;0.80;;;5.50;1.00;;;;;;5076123;28;20185;-78
2022/01/31 11:52:54;;;;;;;0.80;0.80;;;5.40;99.90;;;;;;5075952;28;20231;-78
2022/01/31 11:55:22;;;;;;;0.80;0.80;;;5.40;1.00;;;;;;5075537;28;20182;-77
2022/01/31 11:57:54;;;;;;;0.80;0.80;;;5.20;1.00;;;;;;5076110;28;20175;-78
2022/01/31 12:00:22;;;;;;;0.70;0.70;;;5.20;1.00;;;;;;5076580;28;20722;-77
2022/01/31 12:02:51;;;;;;;0.80;0.80;;;5.20;1.00;;;;;;5075890;28;20644;-78
2022/01/31 12:05:27;;;;;;;0.83;0.83;;;5.20;23.30;;;;;;5074693;28;20270;-79
2022/01/31 12:08:17;;;;;;;0.80;0.80;;;5.20;1.00;;;;;;5074807;28;20263;-79
2022/01/31 12:10:47;;;;;;;0.80;0.80;;;5.10;1.00;;;;;;5082218;28;20182;-79
2022/01/31 12:13:44;;;;;;;0.80;0.80;;;5.10;1.00;;;;;;5079604;28;20649;-80
2022/01/31 12:16:45;;;;;;;0.80;0.80;;;5.10;12.90;;;;;;5071753;28;20577;-79
2022/01/31 12:19:47;;;;;;;0.80;0.80;;;5.00;1.00;;;;;;5067612;28;20666;-78
2022/01/31 12:22:38;;;;;;;0.70;0.70;;;5.00;99.90;;;;;;5086912;28;20188;-79
2022/01/31 12:25:21;;;;;;;0.90;0.90;;;5.00;56.70;;;;;;5081511;28;20533;-79
2022/01/31 12:27:46;;;;;;;0.70;0.70;;;5.00;99.90;;;;;;5101335;23;20228;-76
2022/01/31 12:30:30;;;;;;;0.70;0.70;;;5.00;99.90;;;;;;5113660;28;20181;-77
2022/01/31 12:32:55;;;;;;;0.70;0.70;;;4.90;1.00;;;;;;5113831;28;20699;-76
2022/01/31 12:35:31;;;;;;;0.77;0.77;;;4.90;99.90;;;;;;5109737;28;20177;-75
2022/01/31 12:37:56;;;;;;;0.80;0.80;;;5.00;1.00;;;;;;5092348;28;20247;-76
2022/01/31 12:40:30;;;;;;;0.77;0.77;;;5.10;99.90;;;;;;5092502;28;20536;-75
2022/01/31 12:45:32;;;;;;;0.80;0.80;;;5.00;1.00;;;;;;5092109;28;20280;-73
2022/01/31 12:48:09;;;;;;;0.70;0.70;;;5.00;88.30;;;;;;5093307;28;20220;-74
2022/01/31 12:50:59;;;;;;;0.80;0.80;;;4.90;99.90;;;;;;5092135;28;20662;-76
2022/01/31 12:53:36;;;;;;;0.80;0.80;;;4.90;99.90;;;;;;5093411;28;20174;-73
2022/01/31 12:56:25;;;;;;;0.70;0.70;;;4.80;99.90;;;;;;5091582;28;20543;-75
2022/01/31 12:58:58;;;;;;;0.90;0.90;;;4.80;1.00;;;;;;5092137;28;20269;-75
2022/01/31 13:01:30;;;;;;;0.80;0.80;;;4.80;1.00;;;;;;5092022;28;20181;-74
2022/01/31 13:03:59;;;;;;;0.80;0.80;;;4.80;1.00;;;;;;5091921;28;20188;-74
2022/01/31 13:06:43;;;;;;;0.77;0.77;;;4.70;1.00;;;;;;5090985;28;20205;-74
2022/01/31 13:09:23;;;;;;;0.70;0.70;;;4.70;1.00;;;;;;5092047;28;20181;-75
2022/01/31 13:11:52;;;;;;;0.67;0.67;;;4.70;1.00;;;;;;5091914;28;20226;-75
2022/01/31 13:14:24;;;;;;;0.70;0.70;;;4.60;1.00;;;;;;5091749;28;20181;-74
2022/01/31 13:17:05;;;;;;;0.80;0.80;;;4.40;1.00;;;;;;5091237;28;20240;-74
2022/01/31 13:19:35;;;;;;;0.80;0.80;;;4.50;1.00;;;;;;5092051;28;20192;-74
2022/01/31 13:22:12;;;;;;;0.70;0.70;;;4.50;1.00;;;;;;5091752;28;20181;-74
2022/01/31 13:24:44;;;;;;;0.80;0.80;;;4.40;1.00;;;;;;5093471;28;20178;-75
2022/01/31 13:27:13;;;;;;;0.70;0.70;;;4.40;1.00;;;;;;5095334;28;20213;-75
2022/01/31 13:29:43;;;;;;;0.80;0.80;;;4.40;1.00;;;;;;5095531;28;20720;-75
2022/01/31 13:32:17;;;;;;;0.70;0.70;;;4.30;1.00;;;;;;5096278;28;20173;-75
2022/01/31 13:34:47;;;;;;;0.77;0.77;;;4.20;1.00;;;;;;5104923;28;20208;-76
2022/01/31 13:37:55;;;;;;;0.90;0.90;;;4.10;1.00;;;;;;5103860;28;20204;-75